sensor_id;sensor_type;location;lat;lon;timestamp;pressure;altitude;pressure_sealevel;temperature;humidity
5755;BME280;2902;42.130;24.732;2023-03-23T00:01:10;99496.97;;;12.46;89.12
5755;BME280;2902;42.130;24.732;2023-03-23T00:03:40;99499.44;;;12.48;88.73
5755;BME280;2902;42.130;24.732;2023-03-23T00:06:08;99493.31;;;12.47;89.12
5755;BME280;2902;42.130;24.732;2023-03-23T00:08:37;99493.72;;;12.44;88.98
5755;BME280;2902;42.130;24.732;2023-03-23T00:11:10;99492.28;;;12.42;89.32
5755;BME280;2902;42.130;24.732;2023-03-23T00:13:40;99493.72;;;12.44;89.54
5755;BME280;2902;42.130;24.732;2023-03-23T00:16:07;99494.53;;;12.45;88.98
5755;BME280;2902;42.130;24.732;2023-03-23T00:18:44;99485.72;;;12.44;89.09
5755;BME280;2902;42.130;24.732;2023-03-23T00:21:11;99485.09;;;12.36;89.39
5755;BME280;2902;42.130;24.732;2023-03-23T00:23:38;99494.97;;;12.35;89.82
5755;BME280;2902;42.130;24.732;2023-03-23T00:26:06;99493.09;;;12.29;89.91
5755;BME280;2902;42.130;24.732;2023-03-23T00:28:33;99490.84;;;12.20;90.38
5755;BME280;2902;42.130;24.732;2023-03-23T00:31:02;99491.28;;;12.17;90.79
5755;BME280;2902;42.130;24.732;2023-03-23T00:33:30;99490.66;;;12.08;91.60
5755;BME280;2902;42.130;24.732;2023-03-23T00:36:00;99493.34;;;12.02;91.93
5755;BME280;2902;42.130;24.732;2023-03-23T00:38:27;99491.28;;;11.97;92.14
5755;BME280;2902;42.130;24.732;2023-03-23T00:40:53;99485.34;;;11.95;93.19
5755;BME280;2902;42.130;24.732;2023-03-23T00:43:23;99482.28;;;11.98;93.43
5755;BME280;2902;42.130;24.732;2023-03-23T00:45:54;99486.19;;;12.02;93.48
5755;BME280;2902;42.130;24.732;2023-03-23T00:48:22;99485.16;;;12.03;93.78
5755;BME280;2902;42.130;24.732;2023-03-23T00:50:49;99481.84;;;12.01;93.82
5755;BME280;2902;42.130;24.732;2023-03-23T00:53:19;99483.91;;;11.99;94.24
5755;BME280;2902;42.130;24.732;2023-03-23T00:55:47;99480.44;;;11.99;94.11
5755;BME280;2902;42.130;24.732;2023-03-23T00:58:15;99473.28;;;11.93;93.96
5755;BME280;2902;42.130;24.732;2023-03-23T01:00:42;99480.22;;;11.87;92.87
5755;BME280;2902;42.130;24.732;2023-03-23T01:03:09;99474.50;;;11.77;93.24
5755;BME280;2902;42.130;24.732;2023-03-23T01:05:38;99468.97;;;11.72;94.20
5755;BME280;2902;42.130;24.732;2023-03-23T01:08:05;99475.50;;;11.63;94.41
5755;BME280;2902;42.130;24.732;2023-03-23T01:10:33;99467.13;;;11.66;94.76
5755;BME280;2902;42.130;24.732;2023-03-23T01:13:04;99465.06;;;11.68;94.66
5755;BME280;2902;42.130;24.732;2023-03-23T01:15:32;99467.97;;;11.73;94.54
5755;BME280;2902;42.130;24.732;2023-03-23T01:17:58;99468.97;;;11.72;94.61
5755;BME280;2902;42.130;24.732;2023-03-23T01:20:25;99475.31;;;11.71;94.17
5755;BME280;2902;42.130;24.732;2023-03-23T01:22:54;99475.72;;;11.68;93.85
5755;BME280;2902;42.130;24.732;2023-03-23T01:25:26;99469.59;;;11.68;94.26
5755;BME280;2902;42.130;24.732;2023-03-23T01:27:55;99472.66;;;11.71;94.28
5755;BME280;2902;42.130;24.732;2023-03-23T01:30:21;99469.19;;;11.71;94.46
5755;BME280;2902;42.130;24.732;2023-03-23T01:32:48;99475.72;;;11.68;93.92
5755;BME280;2902;42.130;24.732;2023-03-23T01:35:15;99469.97;;;11.65;94.33
5755;BME280;2902;42.130;24.732;2023-03-23T01:37:42;99476.53;;;11.62;94.25
5755;BME280;2902;42.130;24.732;2023-03-23T01:40:10;99476.34;;;11.64;95.13
5755;BME280;2902;42.130;24.732;2023-03-23T01:42:38;99482.25;;;11.66;95.43
5755;BME280;2902;42.130;24.732;2023-03-23T01:45:29;99476.94;;;11.72;95.71
5755;BME280;2902;42.130;24.732;2023-03-23T01:48:00;99480.22;;;11.74;95.49
5755;BME280;2902;42.130;24.732;2023-03-23T01:50:35;99491.69;;;11.75;95.57
5755;BME280;2902;42.130;24.732;2023-03-23T01:53:05;99478.59;;;11.73;95.95
5755;BME280;2902;42.130;24.732;2023-03-23T01:55:35;99486.16;;;11.70;96.17
5755;BME280;2902;42.130;24.732;2023-03-23T01:58:04;99473.03;;;11.62;97.10
5755;BME280;2902;42.130;24.732;2023-03-23T02:00:32;99479.78;;;11.64;97.20
5755;BME280;2902;42.130;24.732;2023-03-23T02:03:00;99480.59;;;11.58;97.11
5755;BME280;2902;42.130;24.732;2023-03-23T02:05:30;99479.34;;;11.54;97.43
5755;BME280;2902;42.130;24.732;2023-03-23T02:07:59;99480.97;;;11.49;97.33
5755;BME280;2902;42.130;24.732;2023-03-23T02:10:29;99478.88;;;11.31;97.24
5755;BME280;2902;42.130;24.732;2023-03-23T02:12:56;99473.53;;;11.18;97.65
5755;BME280;2902;42.130;24.732;2023-03-23T02:15:24;99475.56;;;11.10;98.11
5755;BME280;2902;42.130;24.732;2023-03-23T02:17:57;99475.56;;;11.03;98.70
5755;BME280;2902;42.130;24.732;2023-03-23T02:20:52;99484.09;;;10.92;99.17
5755;BME280;2902;42.130;24.732;2023-03-23T02:23:51;99485.63;;;10.67;99.96
5755;BME280;2902;42.130;24.732;2023-03-23T02:26:46;99488.03;;;10.62;100.00
5755;BME280;2902;42.130;24.732;2023-03-23T02:29:33;99486.09;;;10.43;100.00
5755;BME280;2902;42.130;24.732;2023-03-23T02:32:11;99488.75;;;10.43;100.00
5755;BME280;2902;42.130;24.732;2023-03-23T02:34:44;99489.13;;;10.40;100.00
5755;BME280;2902;42.130;24.732;2023-03-23T02:37:14;99479.47;;;10.32;100.00
5755;BME280;2902;42.130;24.732;2023-03-23T02:39:47;99485.59;;;10.33;100.00
5755;BME280;2902;42.130;24.732;2023-03-23T02:42:17;99481.94;;;10.34;100.00
5755;BME280;2902;42.130;24.732;2023-03-23T02:44:45;99482.06;;;10.19;100.00
5755;BME280;2902;42.130;24.732;2023-03-23T02:47:17;99479.63;;;10.24;100.00
5755;BME280;2902;42.130;24.732;2023-03-23T02:49:48;99484.94;;;10.24;100.00
5755;BME280;2902;42.130;24.732;2023-03-23T02:52:19;99494.44;;;10.12;100.00
5755;BME280;2902;42.130;24.732;2023-03-23T02:54:49;99497.78;;;10.00;100.00
5755;BME280;2902;42.130;24.732;2023-03-23T02:57:17;99494.50;;;9.98;100.00
5755;BME280;2902;42.130;24.732;2023-03-23T02:59:44;99490.72;;;9.86;100.00
5755;BME280;2902;42.130;24.732;2023-03-23T03:02:14;99495.09;;;9.72;100.00
5755;BME280;2902;42.130;24.732;2023-03-23T03:04:48;99493.16;;;9.81;100.00
5755;BME280;2902;42.130;24.732;2023-03-23T03:07:44;99499.56;;;9.93;100.00
5755;BME280;2902;42.130;24.732;2023-03-23T03:10:19;99498.56;;;9.94;100.00
5755;BME280;2902;42.130;24.732;2023-03-23T03:12:55;99500.13;;;9.88;100.00
5755;BME280;2902;42.130;24.732;2023-03-23T03:15:26;99495.75;;;10.02;100.00
5755;BME280;2902;42.130;24.732;2023-03-23T03:18:00;99500.72;;;10.05;100.00
5755;BME280;2902;42.130;24.732;2023-03-23T03:20:31;99497.94;;;10.13;100.00
5755;BME280;2902;42.130;24.732;2023-03-23T03:23:00;99505.13;;;10.19;100.00
5755;BME280;2902;42.130;24.732;2023-03-23T03:25:28;99507.25;;;10.30;100.00
5755;BME280;2902;42.130;24.732;2023-03-23T03:27:55;99502.53;;;10.32;100.00
5755;BME280;2902;42.130;24.732;2023-03-23T03:30:26;99514.03;;;10.39;100.00
5755;BME280;2902;42.130;24.732;2023-03-23T03:32:56;99508.34;;;10.42;100.00
5755;BME280;2902;42.130;24.732;2023-03-23T03:35:26;99512.69;;;10.49;100.00
5755;BME280;2902;42.130;24.732;2023-03-23T03:37:54;99512.09;;;10.54;100.00
5755;BME280;2902;42.130;24.732;2023-03-23T03:40:23;99518.66;;;10.58;100.00
5755;BME280;2902;42.130;24.732;2023-03-23T03:42:50;99507.13;;;10.44;100.00
5755;BME280;2902;42.130;24.732;2023-03-23T03:45:19;99523.69;;;10.46;99.85
5755;BME280;2902;42.130;24.732;2023-03-23T03:47:46;99513.22;;;10.38;100.00
5755;BME280;2902;42.130;24.732;2023-03-23T03:50:13;99525.94;;;10.49;100.00
5755;BME280;2902;42.130;24.732;2023-03-23T03:52:42;99519.44;;;10.52;99.65
5755;BME280;2902;42.130;24.732;2023-03-23T03:55:11;99527.22;;;10.53;99.77
5755;BME280;2902;42.130;24.732;2023-03-23T03:57:38;99527.22;;;10.53;99.41
5755;BME280;2902;42.130;24.732;2023-03-23T04:00:06;99529.47;;;10.56;99.32
5755;BME280;2902;42.130;24.732;2023-03-23T04:02:40;99508.78;;;10.45;98.62
5755;BME280;2902;42.130;24.732;2023-03-23T04:05:07;99531.31;;;10.56;98.01
5755;BME280;2902;42.130;24.732;2023-03-23T04:07:35;99527.00;;;10.55;98.05
5755;BME280;2902;42.130;24.732;2023-03-23T04:10:06;99502.91;;;10.29;98.48
5755;BME280;2902;42.130;24.732;2023-03-23T04:12:35;99532.81;;;10.37;98.86
5755;BME280;2902;42.130;24.732;2023-03-23T04:15:02;99531.19;;;10.36;98.93
5755;BME280;2902;42.130;24.732;2023-03-23T04:17:29;99513.94;;;10.26;98.41
5755;BME280;2902;42.130;24.732;2023-03-23T04:19:56;99521.31;;;10.30;98.22
5755;BME280;2902;42.130;24.732;2023-03-23T04:22:24;99529.97;;;10.39;99.08
5755;BME280;2902;42.130;24.732;2023-03-23T04:24:56;99539.56;;;10.40;98.29
5755;BME280;2902;42.130;24.732;2023-03-23T04:27:24;99548.31;;;10.34;97.92
5755;BME280;2902;42.130;24.732;2023-03-23T04:29:54;99539.72;;;10.32;98.13
5755;BME280;2902;42.130;24.732;2023-03-23T04:32:23;99540.97;;;10.36;98.29
5755;BME280;2902;42.130;24.732;2023-03-23T04:34:55;99534.63;;;10.37;97.99
5755;BME280;2902;42.130;24.732;2023-03-23T04:37:23;99537.28;;;10.37;97.35
5755;BME280;2902;42.130;24.732;2023-03-23T04:39:54;99538.16;;;10.44;97.81
5755;BME280;2902;42.130;24.732;2023-03-23T04:42:26;99534.50;;;10.45;96.86
5755;BME280;2902;42.130;24.732;2023-03-23T04:44:54;99541.84;;;10.43;96.23
5755;BME280;2902;42.130;24.732;2023-03-23T04:47:21;99546.91;;;10.38;95.56
5755;BME280;2902;42.130;24.732;2023-03-23T04:49:47;99543.81;;;10.34;96.89
5755;BME280;2902;42.130;24.732;2023-03-23T04:52:14;99545.66;;;10.34;96.27
5755;BME280;2902;42.130;24.732;2023-03-23T04:54:41;99550.47;;;10.24;96.07
5755;BME280;2902;42.130;24.732;2023-03-23T04:57:08;99553.84;;;10.11;96.48
5755;BME280;2902;42.130;24.732;2023-03-23T04:59:35;99545.91;;;10.11;97.14
5755;BME280;2902;42.130;24.732;2023-03-23T05:02:07;99542.47;;;10.17;97.80
5755;BME280;2902;42.130;24.732;2023-03-23T05:04:34;99546.50;;;10.13;97.32
5755;BME280;2902;42.130;24.732;2023-03-23T05:07:02;99536.91;;;10.40;99.47
5755;BME280;2902;42.130;24.732;2023-03-23T05:09:29;99530.63;;;10.75;97.41
5755;BME280;2902;42.130;24.732;2023-03-23T05:11:56;99548.72;;;10.99;94.05
5755;BME280;2902;42.130;24.732;2023-03-23T05:14:24;99549.38;;;11.07;93.48
5755;BME280;2902;42.130;24.732;2023-03-23T05:16:51;99547.75;;;11.13;92.52
5755;BME280;2902;42.130;24.732;2023-03-23T05:19:20;99558.22;;;11.21;92.38
5755;BME280;2902;42.130;24.732;2023-03-23T05:21:47;99559.88;;;11.29;92.83
5755;BME280;2902;42.130;24.732;2023-03-23T05:24:14;99555.41;;;11.36;91.61
5755;BME280;2902;42.130;24.732;2023-03-23T05:26:41;99557.84;;;11.31;90.43
5755;BME280;2902;42.130;24.732;2023-03-23T05:29:07;99564.63;;;11.40;90.95
5755;BME280;2902;42.130;24.732;2023-03-23T05:31:36;99565.03;;;11.43;90.39
5755;BME280;2902;42.130;24.732;2023-03-23T05:34:03;99568.94;;;11.47;90.39
5755;BME280;2902;42.130;24.732;2023-03-23T05:36:31;99574.06;;;11.42;90.50
5755;BME280;2902;42.130;24.732;2023-03-23T05:38:58;99572.84;;;11.45;90.08
5755;BME280;2902;42.130;24.732;2023-03-23T05:41:25;99584.47;;;11.37;89.40
5755;BME280;2902;42.130;24.732;2023-03-23T05:43:52;99591.97;;;11.27;89.70
5755;BME280;2902;42.130;24.732;2023-03-23T05:46:18;99593.84;;;11.27;91.15
5755;BME280;2902;42.130;24.732;2023-03-23T05:48:45;99589.56;;;11.32;91.25
5755;BME280;2902;42.130;24.732;2023-03-23T05:51:12;99590.66;;;11.44;90.73
5755;BME280;2902;42.130;24.732;2023-03-23T05:53:40;99592.72;;;11.55;90.58
5755;BME280;2902;42.130;24.732;2023-03-23T05:56:07;99598.09;;;11.62;89.38
5755;BME280;2902;42.130;24.732;2023-03-23T05:58:34;99597.72;;;11.71;88.95
5755;BME280;2902;42.130;24.732;2023-03-23T06:01:01;99606.25;;;11.60;88.34
5755;BME280;2902;42.130;24.732;2023-03-23T06:03:32;99599.91;;;11.55;90.78
5755;BME280;2902;42.130;24.732;2023-03-23T06:06:01;99606.25;;;11.60;91.27
5755;BME280;2902;42.130;24.732;2023-03-23T06:08:28;99611.19;;;11.63;89.23
5755;BME280;2902;42.130;24.732;2023-03-23T06:10:56;99621.06;;;11.69;88.94
5755;BME280;2902;42.130;24.732;2023-03-23T06:13:23;99616.16;;;11.79;89.99
5755;BME280;2902;42.130;24.732;2023-03-23T06:15:54;99618.25;;;11.90;90.29
5755;BME280;2902;42.130;24.732;2023-03-23T06:18:22;99614.56;;;12.04;89.89
5755;BME280;2902;42.130;24.732;2023-03-23T06:20:50;99614.19;;;12.20;90.13
5755;BME280;2902;42.130;24.732;2023-03-23T06:23:17;99622.81;;;12.16;87.72
5755;BME280;2902;42.130;24.732;2023-03-23T06:25:44;99621.97;;;12.15;87.33
5755;BME280;2902;42.130;24.732;2023-03-23T06:28:12;99616.25;;;12.18;87.98
5755;BME280;2902;42.130;24.732;2023-03-23T06:30:39;99620.94;;;12.16;86.98
5755;BME280;2902;42.130;24.732;2023-03-23T06:33:05;99620.34;;;12.08;89.36
5755;BME280;2902;42.130;24.732;2023-03-23T06:35:34;99623.81;;;12.21;88.60
5755;BME280;2902;42.130;24.732;2023-03-23T06:38:01;99619.13;;;12.30;87.11
5755;BME280;2902;42.130;24.732;2023-03-23T06:40:28;99628.94;;;12.42;86.32
5755;BME280;2902;42.130;24.732;2023-03-23T06:42:56;99633.47;;;12.48;85.16
5755;BME280;2902;42.130;24.732;2023-03-23T06:45:25;99628.16;;;12.42;84.29
5755;BME280;2902;42.130;24.732;2023-03-23T06:47:52;99625.47;;;12.29;84.73
5755;BME280;2902;42.130;24.732;2023-03-23T06:50:19;99641.66;;;12.40;85.21
5755;BME280;2902;42.130;24.732;2023-03-23T06:52:46;99643.28;;;12.48;83.93
5755;BME280;2902;42.130;24.732;2023-03-23T06:55:14;99643.72;;;12.51;83.69
5755;BME280;2902;42.130;24.732;2023-03-23T06:57:41;99647.44;;;12.57;84.18
5755;BME280;2902;42.130;24.732;2023-03-23T07:00:08;99637.16;;;12.67;83.29
5755;BME280;2902;42.130;24.732;2023-03-23T07:02:39;99641.69;;;12.79;82.85
5755;BME280;2902;42.130;24.732;2023-03-23T07:05:06;99645.78;;;13.01;83.91
5755;BME280;2902;42.130;24.732;2023-03-23T07:07:34;99658.97;;;13.53;81.09
5755;BME280;2902;42.130;24.732;2023-03-23T07:10:01;99656.31;;;13.97;78.74
5755;BME280;2902;42.130;24.732;2023-03-23T07:12:28;99658.88;;;14.23;79.10
5755;BME280;2902;42.130;24.732;2023-03-23T07:14:55;99669.69;;;14.59;76.14
5755;BME280;2902;42.130;24.732;2023-03-23T07:17:22;99663.59;;;15.01;75.26
5755;BME280;2902;42.130;24.732;2023-03-23T07:19:50;99671.19;;;15.22;72.91
5755;BME280;2902;42.130;24.732;2023-03-23T07:22:17;99666.91;;;15.57;73.03
5755;BME280;2902;42.130;24.732;2023-03-23T07:24:43;99667.97;;;16.04;70.59
5755;BME280;2902;42.130;24.732;2023-03-23T07:27:10;99667.63;;;16.30;70.76
5755;BME280;2902;42.130;24.732;2023-03-23T07:29:37;99679.78;;;16.74;68.61
5755;BME280;2902;42.130;24.732;2023-03-23T07:32:04;99685.66;;;17.28;67.31
5755;BME280;2902;42.130;24.732;2023-03-23T07:34:32;99689.22;;;17.80;63.29
5755;BME280;2902;42.130;24.732;2023-03-23T07:37:00;99689.84;;;18.26;60.37
5755;BME280;2902;42.130;24.732;2023-03-23T07:39:27;99685.78;;;18.52;58.43
5755;BME280;2902;42.130;24.732;2023-03-23T07:41:53;99682.78;;;18.65;57.88
5755;BME280;2902;42.130;24.732;2023-03-23T07:44:20;99688.50;;;18.85;59.26
5755;BME280;2902;42.130;24.732;2023-03-23T07:46:47;99690.81;;;19.26;57.73
5755;BME280;2902;42.130;24.732;2023-03-23T07:49:14;99692.22;;;19.50;55.12
5755;BME280;2902;42.130;24.732;2023-03-23T07:51:41;99689.00;;;19.48;56.07
5755;BME280;2902;42.130;24.732;2023-03-23T07:54:09;99693.44;;;19.59;53.88
5755;BME280;2902;42.130;24.732;2023-03-23T07:56:36;99692.19;;;19.88;52.12
5755;BME280;2902;42.130;24.732;2023-03-23T07:59:05;99691.31;;;20.25;52.16
5755;BME280;2902;42.130;24.732;2023-03-23T08:01:32;99685.72;;;20.32;52.84
5755;BME280;2902;42.130;24.732;2023-03-23T08:03:59;99690.91;;;20.65;52.52
5755;BME280;2902;42.130;24.732;2023-03-23T08:06:26;99684.81;;;20.48;53.56
5755;BME280;2902;42.130;24.732;2023-03-23T08:08:53;99683.22;;;20.04;52.25
5755;BME280;2902;42.130;24.732;2023-03-23T08:11:21;99678.84;;;19.98;52.94
5755;BME280;2902;42.130;24.732;2023-03-23T08:13:48;99675.03;;;20.42;57.08
5755;BME280;2902;42.130;24.732;2023-03-23T08:16:15;99688.09;;;21.13;51.10
5755;BME280;2902;42.130;24.732;2023-03-23T08:18:42;99685.72;;;21.68;50.50
5755;BME280;2902;42.130;24.732;2023-03-23T08:21:08;99689.19;;;22.10;48.42
5755;BME280;2902;42.130;24.732;2023-03-23T08:23:36;99672.19;;;22.35;49.37
5755;BME280;2902;42.130;24.732;2023-03-23T08:26:03;99676.81;;;22.44;45.69
5755;BME280;2902;42.130;24.732;2023-03-23T08:28:33;99671.44;;;22.79;46.37
5755;BME280;2902;42.130;24.732;2023-03-23T08:31:00;99672.00;;;22.96;42.47
5755;BME280;2902;42.130;24.732;2023-03-23T08:33:26;99665.22;;;22.89;46.18
5755;BME280;2902;42.130;24.732;2023-03-23T08:35:55;99669.81;;;23.28;45.25
5755;BME280;2902;42.130;24.732;2023-03-23T08:38:22;99662.44;;;23.54;45.23
5755;BME280;2902;42.130;24.732;2023-03-23T08:40:49;99653.00;;;23.36;45.72
5755;BME280;2902;42.130;24.732;2023-03-23T08:43:16;99652.91;;;23.61;44.46
5755;BME280;2902;42.130;24.732;2023-03-23T08:45:44;99661.50;;;23.88;41.86
5755;BME280;2902;42.130;24.732;2023-03-23T08:48:11;99643.81;;;24.06;39.57
5755;BME280;2902;42.130;24.732;2023-03-23T08:50:38;99650.91;;;23.97;40.73
5755;BME280;2902;42.130;24.732;2023-03-23T08:53:06;99664.38;;;24.12;40.48
5755;BME280;2902;42.130;24.732;2023-03-23T08:55:32;99661.53;;;23.83;39.38
5755;BME280;2902;42.130;24.732;2023-03-23T08:57:59;99652.47;;;23.29;40.44
5755;BME280;2902;42.130;24.732;2023-03-23T09:00:27;99654.63;;;23.42;43.13
5755;BME280;2902;42.130;24.732;2023-03-23T09:02:55;99658.69;;;23.35;40.72
5755;BME280;2902;42.130;24.732;2023-03-23T09:05:24;99665.69;;;23.56;40.66
5755;BME280;2902;42.130;24.732;2023-03-23T09:07:52;99649.84;;;23.83;42.09
5755;BME280;2902;42.130;24.732;2023-03-23T09:10:20;99653.50;;;24.22;40.60
5755;BME280;2902;42.130;24.732;2023-03-23T09:12:47;99652.06;;;24.29;40.69
5755;BME280;2902;42.130;24.732;2023-03-23T09:15:16;99658.09;;;24.21;39.02
5755;BME280;2902;42.130;24.732;2023-03-23T09:17:45;99654.88;;;24.19;38.62
5755;BME280;2902;42.130;24.732;2023-03-23T09:20:14;99657.47;;;23.76;40.12
5755;BME280;2902;42.130;24.732;2023-03-23T09:22:43;99648.66;;;23.45;38.35
5755;BME280;2902;42.130;24.732;2023-03-23T09:25:11;99643.81;;;23.22;41.16
5755;BME280;2902;42.130;24.732;2023-03-23T09:27:39;99652.78;;;22.78;40.20
5755;BME280;2902;42.130;24.732;2023-03-23T09:30:08;99646.00;;;22.60;40.83
5755;BME280;2902;42.130;24.732;2023-03-23T09:32:36;99644.38;;;22.59;39.90
5755;BME280;2902;42.130;24.732;2023-03-23T09:35:04;99650.84;;;22.53;42.08
5755;BME280;2902;42.130;24.732;2023-03-23T09:37:35;99635.69;;;22.62;40.54
5755;BME280;2902;42.130;24.732;2023-03-23T09:40:02;99642.19;;;22.86;40.44
5755;BME280;2902;42.130;24.732;2023-03-23T09:42:38;99638.94;;;22.99;39.52
5755;BME280;2902;42.130;24.732;2023-03-23T09:45:15;99639.47;;;22.71;37.99
5755;BME280;2902;42.130;24.732;2023-03-23T09:47:48;99642.06;;;22.01;37.84
5755;BME280;2902;42.130;24.732;2023-03-23T09:50:18;99639.50;;;21.70;39.77
5755;BME280;2902;42.130;24.732;2023-03-23T09:52:52;99636.56;;;21.71;43.02
5755;BME280;2902;42.130;24.732;2023-03-23T09:55:21;99634.44;;;21.83;42.12
5755;BME280;2902;42.130;24.732;2023-03-23T09:57:52;99632.25;;;21.75;40.71
5755;BME280;2902;42.130;24.732;2023-03-23T10:00:24;99631.72;;;21.78;41.00
5755;BME280;2902;42.130;24.732;2023-03-23T10:02:59;99618.78;;;21.90;40.55
5755;BME280;2902;42.130;24.732;2023-03-23T10:05:31;99636.66;;;22.01;39.07
5755;BME280;2902;42.130;24.732;2023-03-23T10:08:01;99623.69;;;22.03;39.09
5755;BME280;2902;42.130;24.732;2023-03-23T10:10:36;99629.44;;;22.37;40.86
5755;BME280;2902;42.130;24.732;2023-03-23T10:13:10;99628.38;;;22.53;38.69
5755;BME280;2902;42.130;24.732;2023-03-23T10:15:42;99619.44;;;22.82;37.72
5755;BME280;2902;42.130;24.732;2023-03-23T10:18:13;99630.84;;;22.84;37.52
5755;BME280;2902;42.130;24.732;2023-03-23T10:20:45;99625.16;;;22.71;36.87
5755;BME280;2902;42.130;24.732;2023-03-23T10:23:35;99620.47;;;22.21;36.37
5755;BME280;2902;42.130;24.732;2023-03-23T10:26:12;99629.56;;;21.80;36.78
5755;BME280;2902;42.130;24.732;2023-03-23T10:28:44;99622.53;;;21.84;36.69
5755;BME280;2902;42.130;24.732;2023-03-23T10:31:13;99617.75;;;22.16;37.03
5755;BME280;2902;42.130;24.732;2023-03-23T10:33:44;99615.06;;;22.26;37.06
5755;BME280;2902;42.130;24.732;2023-03-23T10:36:16;99612.34;;;22.26;35.93
5755;BME280;2902;42.130;24.732;2023-03-23T10:38:47;99612.66;;;22.30;36.46
5755;BME280;2902;42.130;24.732;2023-03-23T10:41:17;99613.44;;;22.20;37.27
5755;BME280;2902;42.130;24.732;2023-03-23T10:43:45;99609.59;;;22.01;37.19
5755;BME280;2902;42.130;24.732;2023-03-23T10:46:21;99610.34;;;21.82;37.07
5755;BME280;2902;42.130;24.732;2023-03-23T10:48:50;99600.13;;;21.99;36.93
5755;BME280;2902;42.130;24.732;2023-03-23T10:51:30;99601.25;;;22.13;37.05
5755;BME280;2902;42.130;24.732;2023-03-23T10:54:01;99598.34;;;22.49;35.79
5755;BME280;2902;42.130;24.732;2023-03-23T10:56:34;99596.97;;;22.67;35.97
5755;BME280;2902;42.130;24.732;2023-03-23T10:59:12;99579.09;;;22.76;35.87
5755;BME280;2902;42.130;24.732;2023-03-23T11:01:43;99595.56;;;22.99;35.51
5755;BME280;2902;42.130;24.732;2023-03-23T11:04:12;99584.75;;;22.99;35.51
5755;BME280;2902;42.130;24.732;2023-03-23T11:06:43;99577.41;;;23.05;37.10
5755;BME280;2902;42.130;24.732;2023-03-23T11:09:14;99586.66;;;22.99;35.30
5755;BME280;2902;42.130;24.732;2023-03-23T11:11:47;99586.59;;;22.04;35.27
5755;BME280;2902;42.130;24.732;2023-03-23T11:14:17;99578.22;;;22.05;37.00
5755;BME280;2902;42.130;24.732;2023-03-23T11:16:46;99580.34;;;21.88;36.67
5755;BME280;2902;42.130;24.732;2023-03-23T11:19:22;99579.59;;;21.36;38.47
5755;BME280;2902;42.130;24.732;2023-03-23T11:21:51;99575.81;;;21.32;38.47
5755;BME280;2902;42.130;24.732;2023-03-23T11:24:21;99579.75;;;21.10;38.49
5755;BME280;2902;42.130;24.732;2023-03-23T11:26:50;99579.59;;;20.90;39.14
5755;BME280;2902;42.130;24.732;2023-03-23T11:29:20;99572.91;;;20.92;39.05
5755;BME280;2902;42.130;24.732;2023-03-23T11:31:49;99575.16;;;20.74;39.18
5755;BME280;2902;42.130;24.732;2023-03-23T11:34:20;99579.63;;;20.58;40.24
5755;BME280;2902;42.130;24.732;2023-03-23T11:36:50;99564.91;;;20.39;40.30
5755;BME280;2902;42.130;24.732;2023-03-23T11:39:23;99573.59;;;20.14;40.96
5755;BME280;2902;42.130;24.732;2023-03-23T11:41:51;99568.81;;;20.00;42.25
5755;BME280;2902;42.130;24.732;2023-03-23T11:44:19;99569.91;;;19.99;41.49
5755;BME280;2902;42.130;24.732;2023-03-23T11:46:53;99562.75;;;20.09;42.38
5755;BME280;2902;42.130;24.732;2023-03-23T11:49:32;99561.41;;;20.12;42.54
5755;BME280;2902;42.130;24.732;2023-03-23T11:52:10;99555.59;;;20.25;43.09
5755;BME280;2902;42.130;24.732;2023-03-23T11:54:44;99563.84;;;20.40;42.60
5755;BME280;2902;42.130;24.732;2023-03-23T11:57:12;99560.72;;;20.58;42.01
5755;BME280;2902;42.130;24.732;2023-03-23T11:59:41;99555.44;;;20.73;41.12
5755;BME280;2902;42.130;24.732;2023-03-23T12:02:32;99555.09;;;20.96;42.14
5755;BME280;2902;42.130;24.732;2023-03-23T12:05:30;99552.81;;;20.83;44.80
5755;BME280;2902;42.130;24.732;2023-03-23T12:08:06;99553.34;;;20.80;45.96
5755;BME280;2902;42.130;24.732;2023-03-23T12:10:44;99547.44;;;20.83;46.05
5755;BME280;2902;42.130;24.732;2023-03-23T12:13:26;99550.16;;;20.51;47.54
5755;BME280;2902;42.130;24.732;2023-03-23T12:16:02;99540.59;;;20.34;48.08
5755;BME280;2902;42.130;24.732;2023-03-23T12:18:37;99540.50;;;20.24;48.10
5755;BME280;2902;42.130;24.732;2023-03-23T12:21:15;99540.22;;;20.20;48.24
5755;BME280;2902;42.130;24.732;2023-03-23T12:23:50;99542.69;;;20.27;48.26
5755;BME280;2902;42.130;24.732;2023-03-23T12:26:22;99536.47;;;20.00;48.73
5755;BME280;2902;42.130;24.732;2023-03-23T12:29:05;99534.66;;;19.79;48.52
5755;BME280;2902;42.130;24.732;2023-03-23T12:31:40;99530.28;;;19.73;49.00
5755;BME280;2902;42.130;24.732;2023-03-23T12:34:19;99540.00;;;19.74;49.27
5755;BME280;2902;42.130;24.732;2023-03-23T12:37:04;99530.66;;;19.86;48.86
5755;BME280;2902;42.130;24.732;2023-03-23T12:39:50;99540.84;;;20.06;47.75
5755;BME280;2902;42.130;24.732;2023-03-23T12:42:29;99548.31;;;19.99;47.91
5755;BME280;2902;42.130;24.732;2023-03-23T12:45:03;99543.31;;;19.81;48.08
5755;BME280;2902;42.130;24.732;2023-03-23T12:47:39;99540.75;;;19.96;47.13
5755;BME280;2902;42.130;24.732;2023-03-23T12:50:13;99542.59;;;20.17;48.62
5755;BME280;2902;42.130;24.732;2023-03-23T12:52:47;99537.53;;;20.62;50.90
5755;BME280;2902;42.130;24.732;2023-03-23T12:55:19;99536.16;;;20.91;48.53
5755;BME280;2902;42.130;24.732;2023-03-23T12:57:56;99540.09;;;21.20;46.89
5755;BME280;2902;42.130;24.732;2023-03-23T13:00:28;99532.63;;;21.52;47.56
5755;BME280;2902;42.130;24.732;2023-03-23T13:02:59;99537.25;;;21.67;45.32
5755;BME280;2902;42.130;24.732;2023-03-23T13:05:38;99527.03;;;21.74;45.94
5755;BME280;2902;42.130;24.732;2023-03-23T13:08:11;99533.84;;;21.91;44.29
5755;BME280;2902;42.130;24.732;2023-03-23T13:10:44;99527.38;;;22.07;44.60
5755;BME280;2902;42.130;24.732;2023-03-23T13:13:16;99527.06;;;22.04;44.38
5755;BME280;2902;42.130;24.732;2023-03-23T13:15:51;99516.56;;;22.07;42.28
5755;BME280;2902;42.130;24.732;2023-03-23T13:18:28;99534.13;;;22.15;42.56
5755;BME280;2902;42.130;24.732;2023-03-23T13:21:07;99531.69;;;22.13;41.84
5755;BME280;2902;42.130;24.732;2023-03-23T13:23:39;99531.13;;;21.96;40.94
5755;BME280;2902;42.130;24.732;2023-03-23T13:26:08;99532.75;;;21.87;42.99